EJU93QT EGKK-LPPR
Flight info
| Callsign | EJU93QT |
|---|---|
| Flight time | N/A |
| Altitude | 37000 |
| Route | NOVMA L620 SAM M195 LORKU DCT EBOMO DCT COQUE DCT KORUL DCT ELTEP/N0361F230 T328 ASPOR |
| Aircraft | A320/M-SDE3FGHIRWY/LB1 |
Departure
| Time | 2026-04-19 09:51 |
|---|---|
| Airport | London Gatwick Airport (EGKK) |
Arrival
| Time | N/A |
|---|---|
| Airport | Francisco de Sá Carneiro Airport (LPPR) |
| Time | Latitude | Longitude | Altitude | Speed | Heading |
|---|---|---|---|---|---|
| 2026-04-19 09:27 | 51.15591 | -0.17621 | 213 ft | 0 kts | 347° |
| 2026-04-19 09:29 | 51.15573 | -0.17756 | 209 ft | 0 kts | 347° |
| 2026-04-19 09:29 | 51.15584 | -0.17681 | 213 ft | 0 kts | 347° |
| 2026-04-19 09:41 | 51.15571 | -0.17677 | 215 ft | 3 kts | 347° |
| 2026-04-19 09:41 | 51.15552 | -0.17670 | 214 ft | 3 kts | 347° |
| 2026-04-19 09:41 | 51.15533 | -0.17664 | 209 ft | 3 kts | 5° |
| 2026-04-19 09:41 | 51.15519 | -0.17672 | 216 ft | 3 kts | 58° |
| 2026-04-19 09:42 | 51.15513 | -0.17693 | 216 ft | 1 kts | 77° |
| 2026-04-19 09:42 | 51.15510 | -0.17715 | 216 ft | 2 kts | 77° |
| 2026-04-19 09:42 | 51.15509 | -0.17721 | 216 ft | 0 kts | 77° |
| 2026-04-19 09:44 | 51.15509 | -0.17718 | 216 ft | 3 kts | 77° |
| 2026-04-19 09:44 | 51.15518 | -0.17656 | 213 ft | 5 kts | 78° |
| 2026-04-19 09:45 | 51.15525 | -0.17600 | 204 ft | 7 kts | 78° |
| 2026-04-19 09:45 | 51.15538 | -0.17506 | 210 ft | 8 kts | 78° |
| 2026-04-19 09:45 | 51.15523 | -0.17434 | 212 ft | 7 kts | 146° |
| 2026-04-19 09:45 | 51.15481 | -0.17415 | 206 ft | 6 kts | 168° |
| 2026-04-19 09:46 | 51.15423 | -0.17396 | 209 ft | 10 kts | 167° |
| 2026-04-19 09:46 | 51.15358 | -0.17373 | 208 ft | 9 kts | 167° |
| 2026-04-19 09:46 | 51.15297 | -0.17352 | 211 ft | 8 kts | 168° |
| 2026-04-19 09:46 | 51.15248 | -0.17318 | 208 ft | 7 kts | 146° |
| 2026-04-19 09:47 | 51.15208 | -0.17275 | 207 ft | 8 kts | 144° |
| 2026-04-19 09:47 | 51.15185 | -0.17169 | 207 ft | 11 kts | 74° |
| 2026-04-19 09:47 | 51.15194 | -0.17095 | 204 ft | 7 kts | 78° |
| 2026-04-19 09:47 | 51.15196 | -0.17085 | 204 ft | 0 kts | 78° |
| 2026-04-19 09:48 | 51.15205 | -0.17014 | 207 ft | 11 kts | 78° |
| 2026-04-19 09:48 | 51.15218 | -0.16920 | 213 ft | 6 kts | 78° |
| 2026-04-19 09:48 | 51.15219 | -0.16913 | 211 ft | 0 kts | 78° |
| 2026-04-19 09:48 | 51.15220 | -0.16904 | 208 ft | 5 kts | 78° |
| 2026-04-19 09:49 | 51.15209 | -0.16813 | 210 ft | 9 kts | 130° |
| 2026-04-19 09:49 | 51.15148 | -0.16794 | 205 ft | 10 kts | 193° |
| 2026-04-19 09:49 | 51.15112 | -0.16872 | 209 ft | 8 kts | 260° |
| 2026-04-19 09:49 | 51.15108 | -0.16902 | 209 ft | 0 kts | 258° |
| 2026-04-19 09:50 | 51.15104 | -0.16931 | 203 ft | 19 kts | 257° |
| 2026-04-19 09:50 | 51.15016 | -0.17581 | 206 ft | 95 kts | 257° |
| 2026-04-19 09:50 | 51.14830 | -0.18934 | 211 ft | 152 kts | 257° |
| 2026-04-19 09:50 | 51.14574 | -0.20702 | 643 ft | 167 kts | 261° |
| 2026-04-19 09:51 | 51.14322 | -0.22536 | 1364 ft | 175 kts | 264° |
| 2026-04-19 09:51 | 51.14063 | -0.24575 | 1785 ft | 197 kts | 262° |
| 2026-04-19 09:51 | 51.13766 | -0.26844 | 2258 ft | 222 kts | 261° |
| 2026-04-19 09:51 | 51.13420 | -0.29374 | 2769 ft | 246 kts | 260° |
| 2026-04-19 09:52 | 51.13031 | -0.32123 | 3556 ft | 259 kts | 260° |
| 2026-04-19 09:52 | 51.12634 | -0.34933 | 4548 ft | 261 kts | 260° |
| 2026-04-19 09:52 | 51.12235 | -0.37752 | 5611 ft | 262 kts | 259° |
| 2026-04-19 09:52 | 51.11836 | -0.40592 | 6692 ft | 264 kts | 260° |
| 2026-04-19 09:53 | 51.11348 | -0.43423 | 7619 ft | 269 kts | 249° |
| 2026-04-19 09:53 | 51.10523 | -0.46129 | 8529 ft | 274 kts | 246° |
| 2026-04-19 09:53 | 51.09666 | -0.48874 | 9438 ft | 279 kts | 246° |
| 2026-04-19 09:53 | 51.08796 | -0.51649 | 10329 ft | 283 kts | 247° |
| 2026-04-19 09:54 | 51.07912 | -0.54468 | 11149 ft | 286 kts | 247° |
| 2026-04-19 09:54 | 51.07020 | -0.57317 | 11996 ft | 289 kts | 247° |
| 2026-04-19 09:54 | 51.06122 | -0.60191 | 12845 ft | 291 kts | 247° |
| 2026-04-19 09:54 | 51.05333 | -0.63160 | 13693 ft | 291 kts | 257° |
| 2026-04-19 09:55 | 51.04885 | -0.66300 | 14484 ft | 292 kts | 261° |
| 2026-04-19 09:55 | 51.04464 | -0.69471 | 15239 ft | 294 kts | 261° |
| 2026-04-19 09:55 | 51.04035 | -0.72661 | 15996 ft | 296 kts | 261° |
| 2026-04-19 09:55 | 51.03603 | -0.75871 | 16741 ft | 299 kts | 261° |
| 2026-04-19 09:56 | 51.03157 | -0.79214 | 16950 ft | 320 kts | 261° |
| 2026-04-19 09:56 | 51.02679 | -0.82783 | 17085 ft | 341 kts | 261° |
| 2026-04-19 09:56 | 51.02167 | -0.86566 | 17231 ft | 360 kts | 261° |
| 2026-04-19 09:56 | 51.01628 | -0.90521 | 17524 ft | 371 kts | 261° |
| 2026-04-19 09:57 | 51.01075 | -0.94556 | 18064 ft | 376 kts | 260° |
| 2026-04-19 09:57 | 51.00513 | -0.98627 | 18647 ft | 379 kts | 260° |
| 2026-04-19 09:57 | 50.99946 | -1.02731 | 19169 ft | 382 kts | 260° |
| 2026-04-19 09:57 | 50.99375 | -1.06865 | 19701 ft | 384 kts | 260° |
| 2026-04-19 09:58 | 50.98803 | -1.11023 | 20235 ft | 387 kts | 261° |
| 2026-04-19 09:58 | 50.98216 | -1.15264 | 20765 ft | 389 kts | 260° |
| 2026-04-19 09:58 | 50.97629 | -1.19463 | 21293 ft | 391 kts | 260° |
| 2026-04-19 09:58 | 50.97035 | -1.23689 | 21806 ft | 393 kts | 260° |
| 2026-04-19 09:59 | 50.96353 | -1.27912 | 22300 ft | 398 kts | 254° |
| 2026-04-19 09:59 | 50.95201 | -1.31938 | 22779 ft | 405 kts | 243° |
| 2026-04-19 09:59 | 50.93537 | -1.35602 | 23261 ft | 414 kts | 232° |
| 2026-04-19 09:59 | 50.91414 | -1.38734 | 23728 ft | 422 kts | 221° |
| 2026-04-19 10:00 | 50.88962 | -1.41364 | 24103 ft | 427 kts | 218° |
| 2026-04-19 10:00 | 50.86472 | -1.43953 | 24464 ft | 430 kts | 218° |
| 2026-04-19 10:00 | 50.83968 | -1.46553 | 24846 ft | 432 kts | 218° |
| 2026-04-19 10:00 | 50.81452 | -1.49164 | 25215 ft | 434 kts | 218° |
| 2026-04-19 10:01 | 50.78919 | -1.51787 | 25580 ft | 436 kts | 218° |
| 2026-04-19 10:01 | 50.76373 | -1.54419 | 25932 ft | 438 kts | 218° |
| 2026-04-19 10:01 | 50.73814 | -1.57061 | 26282 ft | 441 kts | 218° |
| 2026-04-19 10:01 | 50.71241 | -1.59716 | 26616 ft | 443 kts | 218° |
| 2026-04-19 10:02 | 50.68657 | -1.62380 | 26939 ft | 445 kts | 218° |
| 2026-04-19 10:02 | 50.66057 | -1.65055 | 27259 ft | 447 kts | 218° |
| 2026-04-19 10:02 | 50.63446 | -1.67742 | 27552 ft | 449 kts | 218° |
| 2026-04-19 10:02 | 50.60824 | -1.70435 | 27883 ft | 451 kts | 218° |
| 2026-04-19 10:03 | 50.58188 | -1.73136 | 28187 ft | 453 kts | 218° |
| 2026-04-19 10:03 | 50.55507 | -1.75879 | 28490 ft | 455 kts | 218° |
| 2026-04-19 10:03 | 50.52850 | -1.78598 | 28831 ft | 456 kts | 218° |
| 2026-04-19 10:03 | 50.50193 | -1.81307 | 29269 ft | 455 kts | 218° |
| 2026-04-19 10:04 | 50.47542 | -1.84002 | 29693 ft | 454 kts | 218° |
| 2026-04-19 10:04 | 50.44892 | -1.86696 | 30052 ft | 454 kts | 218° |
| 2026-04-19 10:04 | 50.42238 | -1.89399 | 30394 ft | 455 kts | 218° |
| 2026-04-19 10:04 | 50.39583 | -1.92099 | 30720 ft | 455 kts | 218° |
| 2026-04-19 10:05 | 50.36934 | -1.94792 | 31092 ft | 453 kts | 218° |
| 2026-04-19 10:05 | 50.34290 | -1.97476 | 31450 ft | 453 kts | 218° |
| 2026-04-19 10:05 | 50.31644 | -2.00154 | 31780 ft | 453 kts | 218° |
| 2026-04-19 10:05 | 50.29002 | -2.02825 | 32125 ft | 452 kts | 218° |
| 2026-04-19 10:06 | 50.26355 | -2.05492 | 32466 ft | 452 kts | 218° |
| 2026-04-19 10:06 | 50.23714 | -2.08146 | 32805 ft | 452 kts | 218° |
| 2026-04-19 10:06 | 50.21054 | -2.10779 | 33137 ft | 452 kts | 217° |
| 2026-04-19 10:06 | 50.18383 | -2.13382 | 33466 ft | 452 kts | 217° |
| 2026-04-19 10:07 | 50.15711 | -2.15964 | 33788 ft | 452 kts | 217° |
| 2026-04-19 10:07 | 50.13035 | -2.18544 | 34129 ft | 452 kts | 217° |
| 2026-04-19 10:07 | 50.10367 | -2.21123 | 34444 ft | 452 kts | 217° |
| 2026-04-19 10:07 | 50.07697 | -2.23709 | 34733 ft | 452 kts | 217° |
| 2026-04-19 10:08 | 50.05034 | -2.26292 | 35009 ft | 452 kts | 217° |
| 2026-04-19 10:08 | 50.02362 | -2.28877 | 35246 ft | 452 kts | 217° |
| 2026-04-19 10:08 | 49.99689 | -2.31460 | 35475 ft | 453 kts | 217° |
| 2026-04-19 10:08 | 49.97010 | -2.34047 | 35729 ft | 453 kts | 217° |
| 2026-04-19 10:09 | 49.94332 | -2.36629 | 35975 ft | 453 kts | 216° |
| 2026-04-19 10:09 | 49.91655 | -2.39205 | 36245 ft | 453 kts | 216° |
| 2026-04-19 10:09 | 49.88974 | -2.41785 | 36478 ft | 453 kts | 216° |
| 2026-04-19 10:09 | 49.86299 | -2.44356 | 36731 ft | 453 kts | 216° |
| 2026-04-19 10:10 | 49.83622 | -2.46923 | 36967 ft | 452 kts | 216° |
| 2026-04-19 10:10 | 49.80948 | -2.49483 | 37206 ft | 452 kts | 216° |
| 2026-04-19 10:10 | 49.78267 | -2.52047 | 37350 ft | 453 kts | 216° |
| 2026-04-19 10:11 | 49.72864 | -2.57227 | 37355 ft | 454 kts | 216° |
| 2026-04-19 10:11 | 49.67494 | -2.62357 | 37355 ft | 454 kts | 216° |
| 2026-04-19 10:12 | 49.62116 | -2.67456 | 37353 ft | 454 kts | 216° |
| 2026-04-19 10:12 | 49.56743 | -2.72547 | 37356 ft | 454 kts | 216° |
| 2026-04-19 10:13 | 49.51361 | -2.77638 | 37359 ft | 454 kts | 216° |
| 2026-04-19 10:13 | 49.45976 | -2.82716 | 37350 ft | 454 kts | 216° |
| 2026-04-19 10:14 | 49.40588 | -2.87791 | 37358 ft | 454 kts | 216° |